createdAt,value
2022-11-21T00:00:23.497Z,2.60
2022-11-21T00:02:52.130Z,2.70
2022-11-21T00:05:21.824Z,2.70
2022-11-21T00:07:50.067Z,2.70
2022-11-21T00:10:18.660Z,2.70
2022-11-21T00:12:46.987Z,2.80
2022-11-21T00:15:15.525Z,2.80
2022-11-21T00:17:43.814Z,2.80
2022-11-21T00:20:13.114Z,2.80
2022-11-21T00:22:42.876Z,2.90
2022-11-21T00:25:11.330Z,2.90
2022-11-21T00:27:39.818Z,2.80
2022-11-21T00:30:10.432Z,2.80
2022-11-21T00:32:38.687Z,2.80
2022-11-21T00:35:08.190Z,2.70
2022-11-21T00:37:36.716Z,2.70
2022-11-21T00:40:07.590Z,2.80
2022-11-21T00:42:35.877Z,2.70
2022-11-21T00:45:05.329Z,2.70
2022-11-21T00:47:33.579Z,2.70
2022-11-21T00:50:02.010Z,2.70
2022-11-21T00:52:30.350Z,2.70
2022-11-21T00:54:58.693Z,2.70
2022-11-21T00:57:28.398Z,2.70
2022-11-21T00:59:56.759Z,2.70
2022-11-21T01:02:25.232Z,2.70
2022-11-21T01:04:53.559Z,2.70
2022-11-21T01:07:21.953Z,2.60
2022-11-21T01:09:50.378Z,2.70
2022-11-21T01:12:18.715Z,2.70
2022-11-21T01:14:48.449Z,2.60
2022-11-21T01:17:17.442Z,2.60
2022-11-21T01:19:45.798Z,2.60
2022-11-21T01:22:14.173Z,2.60
2022-11-21T01:24:42.528Z,2.60
2022-11-21T01:27:10.813Z,2.60
2022-11-21T01:29:39.246Z,2.70
2022-11-21T01:32:09.313Z,2.70
2022-11-21T01:34:37.597Z,2.70
2022-11-21T01:37:05.989Z,2.70
2022-11-21T01:39:34.320Z,2.70
2022-11-21T01:42:02.662Z,2.80
2022-11-21T01:44:47.846Z,2.80
2022-11-21T01:47:17.909Z,2.80
2022-11-21T01:49:48.204Z,2.80
2022-11-21T01:52:21.104Z,2.90
2022-11-21T01:54:55.141Z,2.90
2022-11-21T01:57:28.553Z,2.80
2022-11-21T02:00:01.779Z,2.90
2022-11-21T02:02:34.860Z,2.90
2022-11-21T02:05:06.188Z,2.90
2022-11-21T02:07:37.304Z,3.00
2022-11-21T02:10:07.476Z,3.00
2022-11-21T02:12:42.102Z,3.00
2022-11-21T02:15:11.175Z,3.00
2022-11-21T02:17:40.904Z,3.00
2022-11-21T02:20:12.160Z,3.10
2022-11-21T02:22:49.244Z,3.10
2022-11-21T02:25:21.496Z,3.10
2022-11-21T02:27:51.350Z,3.10
2022-11-21T02:30:20.424Z,3.10
2022-11-21T02:32:48.773Z,3.10
2022-11-21T02:35:19.764Z,3.10
2022-11-21T02:37:50.320Z,3.20
2022-11-21T02:40:25.542Z,3.10
2022-11-21T02:43:03.709Z,3.10
2022-11-21T02:45:35.333Z,3.20
2022-11-21T02:48:04.179Z,3.20
2022-11-21T02:50:36.160Z,3.20
2022-11-21T02:53:06.938Z,3.20
2022-11-21T02:55:36.963Z,3.20
2022-11-21T02:58:05.870Z,3.20
2022-11-21T03:00:35.124Z,3.30
2022-11-21T03:03:03.777Z,3.30
2022-11-21T03:05:32.548Z,3.30
2022-11-21T03:08:01.030Z,3.30
2022-11-21T03:10:29.392Z,3.30
2022-11-21T03:13:01.841Z,3.40
2022-11-21T03:15:32.396Z,3.40
2022-11-21T03:18:02.744Z,3.50
2022-11-21T03:20:31.481Z,3.50
2022-11-21T03:22:59.846Z,3.50
2022-11-21T03:25:29.144Z,3.50
2022-11-21T03:27:58.874Z,3.50
2022-11-21T03:30:27.967Z,3.50
2022-11-21T03:32:57.557Z,3.50
2022-11-21T03:35:26.598Z,3.60
2022-11-21T03:37:55.007Z,3.50
2022-11-21T03:40:23.426Z,3.50
2022-11-21T03:42:51.768Z,3.50
2022-11-21T03:45:21.507Z,3.50
2022-11-21T03:47:49.803Z,3.50
2022-11-21T03:50:20.971Z,3.50
2022-11-21T03:52:49.352Z,3.40
2022-11-21T03:55:17.892Z,3.40
2022-11-21T03:57:46.176Z,3.40
2022-11-21T04:00:15.976Z,3.40
2022-11-21T04:02:45.611Z,3.40
2022-11-21T04:05:13.930Z,3.40
2022-11-21T04:07:42.299Z,3.40
2022-11-21T04:10:11.469Z,3.40
2022-11-21T04:12:39.878Z,3.50
2022-11-21T04:15:13.465Z,3.40
2022-11-21T04:17:42.199Z,3.40
2022-11-21T04:20:12.921Z,3.40
2022-11-21T04:22:41.177Z,3.40
2022-11-21T04:25:09.766Z,3.40
2022-11-21T04:27:38.111Z,3.40
2022-11-21T04:30:07.627Z,3.30
2022-11-21T04:32:35.906Z,3.30
2022-11-21T04:35:04.409Z,3.30
2022-11-21T04:37:34.097Z,3.30
2022-11-21T04:40:02.446Z,3.40
2022-11-21T04:42:30.752Z,3.40
2022-11-21T04:44:59.159Z,3.40
2022-11-21T04:47:27.543Z,3.40
2022-11-21T04:49:56.656Z,3.40
2022-11-21T04:52:25.007Z,3.40
2022-11-21T04:54:54.874Z,3.40
2022-11-21T04:57:23.385Z,3.50
2022-11-21T04:59:51.806Z,3.50
2022-11-21T05:02:20.209Z,3.40
2022-11-21T05:04:48.686Z,3.50
2022-11-21T05:07:17.533Z,3.50
2022-11-21T05:09:46.225Z,3.50
2022-11-21T05:12:33.553Z,3.50
2022-11-21T05:15:01.860Z,3.50
2022-11-21T05:17:30.496Z,3.50
2022-11-21T05:19:58.790Z,3.50
2022-11-21T05:22:27.070Z,3.50
2022-11-21T05:24:55.460Z,3.50
2022-11-21T05:27:25.123Z,3.50
2022-11-21T05:29:54.640Z,3.50
2022-11-21T05:32:23.138Z,3.50
2022-11-21T05:34:51.452Z,3.50
2022-11-21T05:37:21.946Z,3.50
2022-11-21T05:39:50.310Z,3.50
2022-11-21T05:42:38.953Z,3.50
2022-11-21T05:45:09.396Z,3.50
2022-11-21T05:47:37.706Z,3.50
2022-11-21T05:50:06.971Z,3.50
2022-11-21T05:52:35.326Z,3.50
2022-11-21T05:55:03.737Z,3.50
2022-11-21T05:57:32.548Z,3.50
2022-11-21T06:00:00.947Z,3.50
2022-11-21T06:02:48.303Z,3.50
2022-11-21T06:05:16.768Z,3.50
2022-11-21T06:07:45.081Z,3.50
2022-11-21T06:10:13.611Z,3.50
2022-11-21T06:12:41.989Z,3.50
2022-11-21T06:15:11.234Z,3.50
2022-11-21T06:17:40.968Z,3.50
2022-11-21T06:20:11.167Z,3.50
2022-11-21T06:22:39.564Z,3.50
2022-11-21T06:25:08.418Z,3.60
2022-11-21T06:27:36.675Z,3.60
2022-11-21T06:30:05.472Z,3.50
2022-11-21T06:32:38.624Z,3.40
2022-11-21T06:35:09.100Z,3.30
2022-11-21T06:37:37.343Z,3.30
2022-11-21T06:40:07.031Z,3.20
2022-11-21T06:42:35.348Z,3.10
2022-11-21T06:45:03.819Z,3.10
2022-11-21T06:47:35.033Z,3.00
2022-11-21T06:50:03.428Z,3.00
2022-11-21T06:52:35.736Z,3.00
2022-11-21T06:55:04.230Z,3.00
2022-11-21T06:57:32.845Z,2.90
2022-11-21T07:00:01.203Z,2.90
2022-11-21T07:02:29.538Z,2.80
2022-11-21T07:04:57.862Z,2.70
2022-11-21T07:07:26.218Z,2.70
2022-11-21T07:09:56.033Z,2.60
2022-11-21T07:12:50.171Z,2.60
2022-11-21T07:15:18.630Z,2.50
2022-11-21T07:17:46.970Z,2.40
2022-11-21T07:20:15.448Z,2.40
2022-11-21T07:22:43.674Z,2.30
2022-11-21T07:25:13.330Z,2.20
2022-11-21T07:27:41.971Z,2.10
2022-11-21T07:30:11.467Z,2.00
2022-11-21T07:32:39.977Z,1.90
2022-11-21T07:35:09.568Z,1.90
2022-11-21T07:37:40.133Z,1.80
2022-11-21T07:40:09.078Z,1.80
2022-11-21T07:42:38.959Z,1.80
2022-11-21T07:45:08.059Z,1.80
2022-11-21T07:47:36.552Z,1.80
2022-11-21T07:50:05.229Z,1.80
2022-11-21T07:52:33.867Z,1.80
2022-11-21T07:55:02.657Z,1.80
2022-11-21T07:57:31.471Z,1.80
2022-11-21T08:00:01.166Z,1.70
2022-11-21T08:02:30.184Z,1.80
2022-11-21T08:04:58.448Z,1.70
2022-11-21T08:07:27.245Z,1.80
2022-11-21T08:09:55.564Z,1.90
2022-11-21T08:12:23.869Z,1.90
2022-11-21T08:14:52.098Z,1.90
2022-11-21T08:17:21.761Z,1.90
2022-11-21T08:19:49.956Z,1.90
2022-11-21T08:22:18.296Z,1.80
2022-11-21T08:24:46.570Z,1.80
2022-11-21T08:27:17.023Z,1.80
2022-11-21T08:29:45.282Z,1.90
2022-11-21T08:32:13.599Z,1.90
2022-11-21T08:34:43.233Z,1.90
2022-11-21T08:37:11.645Z,1.80
2022-11-21T08:39:40.094Z,1.80
2022-11-21T08:42:08.459Z,1.80
2022-11-21T08:44:36.804Z,1.80
2022-11-21T08:47:06.758Z,1.80
2022-11-21T08:49:35.922Z,1.80
2022-11-21T08:52:05.967Z,1.80
2022-11-21T08:54:34.184Z,1.80
2022-11-21T08:57:02.471Z,1.70
2022-11-21T08:59:30.933Z,1.70
2022-11-21T09:02:06.799Z,1.80
2022-11-21T09:04:43.177Z,1.70
2022-11-21T09:07:13.242Z,1.70
2022-11-21T09:09:41.884Z,1.70
2022-11-21T09:12:10.280Z,1.70
2022-11-21T09:14:55.820Z,1.70
2022-11-21T09:17:41.361Z,1.80
2022-11-21T09:20:10.800Z,1.80
2022-11-21T09:22:40.624Z,1.80
2022-11-21T09:25:09.845Z,1.80
2022-11-21T09:27:38.249Z,1.80
2022-11-21T09:30:07.336Z,1.80
2022-11-21T09:32:37.051Z,1.80
2022-11-21T09:35:06.443Z,1.90
2022-11-21T09:37:37.951Z,1.90
2022-11-21T09:40:11.666Z,2.00
2022-11-21T09:43:09.745Z,2.00
2022-11-21T09:45:46.238Z,2.00
2022-11-21T09:48:18.691Z,2.00
2022-11-21T09:50:53.937Z,2.00
2022-11-21T09:53:27.297Z,2.00
2022-11-21T09:56:00.164Z,2.00
2022-11-21T09:58:33.233Z,2.00
2022-11-21T10:01:01.764Z,2.00
2022-11-21T10:03:32.773Z,2.00
2022-11-21T10:06:05.213Z,1.90
2022-11-21T10:08:43.071Z,1.90
2022-11-21T10:11:23.207Z,1.90
2022-11-21T10:14:06.396Z,2.00
2022-11-21T10:16:44.106Z,2.00
2022-11-21T10:19:30.482Z,1.90
2022-11-21T10:22:35.518Z,1.90
2022-11-21T10:25:13.850Z,1.90
2022-11-21T10:27:51.075Z,1.90
2022-11-21T10:30:21.761Z,1.90
2022-11-21T10:32:54.766Z,2.00
2022-11-21T10:35:26.288Z,2.00
2022-11-21T10:37:57.037Z,2.00
2022-11-21T10:40:33.628Z,2.10
2022-11-21T10:43:22.466Z,2.10
2022-11-21T10:45:51.831Z,2.20
2022-11-21T10:48:20.512Z,2.20
2022-11-21T10:51:12.445Z,2.20
2022-11-21T10:54:01.949Z,2.30
2022-11-21T10:56:35.578Z,2.30
2022-11-21T10:59:25.648Z,2.30
2022-11-21T11:01:59.308Z,2.40
2022-11-21T11:04:33.609Z,2.40
2022-11-21T11:07:23.308Z,2.40
2022-11-21T11:09:53.610Z,2.50
2022-11-21T11:12:45.311Z,2.50
2022-11-21T11:15:29.396Z,2.50
2022-11-21T11:18:03.964Z,2.60
2022-11-21T11:20:38.039Z,2.60
2022-11-21T11:23:26.805Z,2.70
2022-11-21T11:25:57.165Z,2.70
2022-11-21T11:28:26.401Z,2.70
2022-11-21T11:30:57.446Z,2.70
2022-11-21T11:33:34.792Z,2.70
2022-11-21T11:36:14.702Z,2.50
2022-11-21T11:38:53.505Z,2.60
2022-11-21T11:42:05.533Z,2.60
2022-11-21T11:45:01.175Z,2.70
2022-11-21T11:47:37.108Z,2.50
2022-11-21T11:50:12.481Z,2.50
2022-11-21T11:52:52.039Z,2.60
2022-11-21T11:55:27.632Z,2.60
2022-11-21T11:57:59.495Z,2.70
2022-11-21T12:00:34.481Z,2.70
2022-11-21T12:03:13.140Z,2.80
2022-11-21T12:05:53.415Z,2.80
2022-11-21T12:08:41.500Z,2.80
2022-11-21T12:11:43.186Z,2.70
2022-11-21T12:23:00.075Z,2.30
2022-11-21T12:25:43.009Z,2.20
2022-11-21T12:28:34.954Z,2.00
2022-11-21T12:31:30.920Z,2.00
2022-11-21T12:34:36.991Z,2.10
2022-11-21T12:37:11.649Z,2.00
2022-11-21T12:39:58.222Z,2.00
2022-11-21T12:42:57.281Z,1.90
2022-11-21T12:45:32.903Z,2.00
2022-11-21T12:48:43.743Z,2.20
2022-11-21T12:51:55.151Z,2.20
2022-11-21T12:55:08.790Z,2.40
2022-11-21T12:58:24.924Z,2.30
2022-11-21T13:01:19.692Z,2.20
2022-11-21T13:04:05.839Z,2.30
2022-11-21T13:06:48.450Z,2.40
2022-11-21T13:09:21.484Z,2.50
2022-11-21T13:12:02.413Z,2.50
2022-11-21T13:14:46.081Z,2.50
2022-11-21T13:17:26.279Z,2.50
2022-11-21T13:19:59.211Z,2.50
2022-11-21T13:22:51.098Z,2.50
2022-11-21T13:25:40.921Z,2.60
2022-11-21T13:28:40.383Z,2.70
2022-11-21T13:31:34.346Z,2.80
2022-11-21T13:34:11.606Z,2.80
2022-11-21T13:36:48.108Z,2.80
2022-11-21T13:39:42.725Z,2.90
2022-11-21T13:42:35.975Z,3.00
2022-11-21T13:45:43.879Z,3.00
2022-11-21T13:48:47.124Z,3.10
2022-11-21T13:51:51.463Z,3.10
2022-11-21T13:55:02.949Z,3.20
2022-11-21T13:57:45.906Z,3.10
2022-11-21T14:00:45.877Z,3.20
2022-11-21T14:03:40.917Z,3.10
2022-11-21T14:06:39.422Z,3.10
2022-11-21T14:09:25.618Z,3.20
2022-11-21T14:11:58.221Z,3.20
2022-11-21T14:14:34.756Z,3.20
2022-11-21T14:17:30.023Z,3.20
2022-11-21T14:20:02.768Z,3.20
2022-11-21T14:22:45.019Z,3.20
2022-11-21T14:25:18.629Z,3.20
2022-11-21T14:27:49.781Z,3.00
2022-11-21T14:30:30.888Z,2.90
2022-11-21T14:33:14.112Z,2.90
2022-11-21T14:35:48.831Z,2.80
2022-11-21T14:38:17.378Z,2.70
2022-11-21T14:40:45.785Z,2.70
2022-11-21T14:43:30.650Z,2.60
2022-11-21T14:45:59.210Z,2.50
2022-11-21T14:48:28.584Z,2.50
2022-11-21T14:51:01.853Z,2.40
2022-11-21T14:53:30.402Z,2.40
2022-11-21T14:56:01.688Z,2.50
2022-11-21T14:58:30.417Z,2.50
2022-11-21T15:01:06.812Z,2.60
2022-11-21T15:03:35.940Z,2.60
2022-11-21T15:11:52.446Z,2.70
2022-11-21T15:14:26.121Z,2.70
2022-11-21T15:16:55.966Z,2.80
2022-11-21T15:19:26.395Z,2.80
2022-11-21T15:21:58.174Z,2.80
2022-11-21T15:24:33.114Z,2.70
2022-11-21T15:27:01.508Z,2.70
2022-11-21T15:29:31.556Z,2.70
2022-11-21T15:32:15.797Z,2.70
2022-11-21T15:34:45.139Z,2.80
2022-11-21T15:37:17.776Z,2.70
2022-11-21T15:39:48.460Z,2.70
2022-11-21T15:42:39.140Z,2.70
2022-11-21T15:45:25.378Z,2.70
2022-11-21T15:47:55.538Z,2.70
2022-11-21T15:50:25.100Z,2.70
2022-11-21T15:52:55.108Z,2.70
2022-11-21T15:55:28.270Z,2.60
2022-11-21T15:57:14.775Z,2.70
2022-11-21T15:57:14.854Z,2.70
2022-11-21T15:57:56.607Z,2.60
2022-11-21T16:00:24.996Z,2.60
2022-11-21T16:02:53.356Z,2.50
2022-11-21T16:05:22.027Z,2.50
2022-11-21T16:07:50.387Z,2.40
2022-11-21T16:10:27.292Z,2.40
2022-11-21T16:12:56.417Z,2.30
2022-11-21T16:15:24.951Z,2.30
2022-11-21T16:17:53.700Z,2.20
2022-11-21T16:20:22.053Z,2.20
2022-11-21T16:22:50.392Z,2.10
2022-11-21T16:25:20.198Z,2.00
2022-11-21T16:27:48.556Z,2.00
2022-11-21T16:30:17.192Z,1.90
2022-11-21T16:32:45.543Z,1.90
2022-11-21T16:35:14.361Z,1.80
2022-11-21T16:37:42.803Z,1.80
2022-11-21T16:40:11.784Z,1.70
2022-11-21T16:42:41.489Z,1.70
2022-11-21T16:45:10.598Z,1.60
2022-11-21T16:47:40.352Z,1.60
2022-11-21T16:50:11.544Z,1.60
2022-11-21T16:52:39.966Z,1.50
2022-11-21T16:55:08.789Z,1.50
2022-11-21T16:57:37.569Z,1.50
2022-11-21T17:00:11.149Z,1.50
2022-11-21T17:02:39.890Z,1.40
2022-11-21T17:05:09.045Z,1.40
2022-11-21T17:07:37.507Z,1.40
2022-11-21T17:10:06.508Z,1.40
2022-11-21T17:12:38.976Z,1.30
2022-11-21T17:15:12.499Z,1.30
2022-11-21T17:17:41.314Z,1.30
2022-11-21T17:20:11.211Z,1.30
2022-11-21T17:22:39.656Z,1.30
2022-11-21T17:25:08.772Z,1.20
2022-11-21T17:27:37.156Z,1.20
2022-11-21T17:30:06.374Z,1.30
2022-11-21T17:32:37.490Z,1.30
2022-11-21T17:35:06.680Z,1.30
2022-11-21T17:37:35.054Z,1.30
2022-11-21T17:40:03.413Z,1.30
2022-11-21T17:42:31.737Z,1.30
2022-11-21T17:45:00.144Z,1.40
2022-11-21T17:47:28.498Z,1.40
2022-11-21T17:50:02.639Z,1.40
2022-11-21T17:52:34.271Z,1.30
2022-11-21T17:55:02.762Z,1.30
2022-11-21T17:57:31.669Z,1.30
2022-11-21T18:00:00.047Z,1.30
2022-11-21T18:02:28.539Z,1.20
2022-11-21T18:04:58.460Z,1.20
2022-11-21T18:07:26.840Z,1.20
2022-11-21T18:10:01.236Z,1.10
2022-11-21T18:12:37.750Z,1.10
2022-11-21T18:15:06.930Z,1.10
2022-11-21T18:17:35.255Z,1.00
2022-11-21T18:20:05.177Z,1.00
2022-11-21T18:22:33.500Z,1.00
2022-11-21T18:25:01.815Z,1.00
2022-11-21T18:27:30.159Z,1.00
2022-11-21T18:29:58.536Z,0.90
2022-11-21T18:32:26.857Z,0.90
2022-11-21T18:34:55.566Z,0.90
2022-11-21T18:37:25.260Z,0.80
2022-11-21T18:39:53.762Z,0.80
2022-11-21T18:42:22.160Z,0.80
2022-11-21T18:44:51.876Z,0.80
2022-11-21T18:47:21.102Z,0.80
2022-11-21T18:49:49.637Z,0.70
2022-11-21T18:52:17.925Z,0.70
2022-11-21T18:54:48.310Z,0.70
2022-11-21T18:57:16.641Z,0.60
2022-11-21T18:59:45.006Z,0.60
2022-11-21T19:02:13.301Z,0.60
2022-11-21T19:04:41.665Z,0.50
2022-11-21T19:07:10.062Z,0.50
2022-11-21T19:09:38.964Z,0.50
2022-11-21T19:12:11.791Z,0.40
2022-11-21T19:14:42.287Z,0.40
2022-11-21T19:17:16.437Z,0.30
2022-11-21T19:20:14.034Z,0.30
2022-11-21T19:23:10.902Z,0.30
2022-11-21T19:25:39.278Z,0.20
2022-11-21T19:28:09.208Z,0.20
2022-11-21T19:30:37.741Z,0.10
2022-11-21T19:33:06.079Z,0.10
2022-11-21T19:35:34.553Z,0.10
2022-11-21T19:38:02.929Z,0.20
2022-11-21T19:40:51.331Z,0.30
2022-11-21T19:43:20.976Z,0.40
2022-11-21T19:45:55.057Z,0.50
2022-11-21T19:48:26.080Z,0.50
2022-11-21T19:50:58.615Z,0.60
2022-11-21T19:53:28.093Z,0.60
2022-11-21T19:55:56.541Z,0.70
2022-11-21T19:58:27.511Z,0.70
2022-11-21T20:00:55.953Z,0.70
2022-11-21T20:03:24.229Z,0.80
2022-11-21T20:05:52.643Z,0.80
2022-11-21T20:08:20.982Z,0.90
2022-11-21T20:10:49.355Z,0.90
2022-11-21T20:13:17.804Z,0.90
2022-11-21T20:15:47.606Z,0.90
2022-11-21T20:18:15.921Z,1.00
2022-11-21T20:20:44.370Z,1.00
2022-11-21T20:23:13.127Z,1.00
2022-11-21T20:25:51.605Z,1.00
2022-11-21T20:28:19.996Z,0.80
2022-11-21T20:30:49.908Z,0.70
2022-11-21T20:33:18.620Z,0.60
2022-11-21T20:35:47.327Z,0.60
2022-11-21T20:38:20.115Z,0.60
2022-11-21T20:40:53.967Z,0.70
2022-11-21T20:43:22.274Z,0.60
2022-11-21T20:46:09.999Z,0.60
2022-11-21T20:48:40.559Z,0.60
2022-11-21T20:54:03.070Z,0.70
2022-11-21T20:56:34.683Z,0.70
2022-11-21T20:59:03.387Z,0.80
2022-11-21T21:01:33.899Z,0.80
2022-11-21T21:04:02.291Z,0.80
2022-11-21T21:06:35.740Z,0.80
2022-11-21T21:09:04.683Z,0.80
2022-11-21T21:14:22.987Z,0.80
2022-11-21T21:16:53.041Z,0.70
2022-11-21T21:19:21.932Z,0.80
2022-11-21T21:21:50.490Z,0.70
2022-11-21T21:24:19.061Z,0.70
2022-11-21T21:26:49.626Z,0.80
2022-11-21T21:29:20.004Z,0.80
2022-11-21T21:32:41.854Z,0.80
2022-11-21T21:35:11.849Z,0.90
2022-11-21T21:37:40.421Z,0.90
2022-11-21T21:40:10.255Z,1.00
2022-11-21T21:42:38.721Z,1.00
2022-11-21T21:45:07.906Z,1.00
2022-11-21T21:47:36.441Z,1.10
2022-11-21T21:50:05.332Z,1.10
2022-11-21T21:52:35.436Z,1.10
2022-11-21T21:55:04.030Z,1.10
2022-11-21T21:57:32.587Z,1.20
2022-11-21T22:00:01.068Z,1.20
2022-11-21T22:02:29.482Z,1.20
2022-11-21T22:04:58.274Z,1.30
2022-11-21T22:07:26.801Z,1.30
2022-11-21T22:09:59.446Z,1.40
2022-11-21T22:12:28.015Z,1.40
2022-11-21T22:14:57.639Z,1.40
2022-11-21T22:17:27.537Z,1.50
2022-11-21T22:19:56.640Z,1.40
2022-11-21T22:22:25.633Z,1.40
2022-11-21T22:24:54.151Z,1.50
2022-11-21T22:27:23.950Z,1.50
2022-11-21T22:29:52.663Z,1.50
2022-11-21T22:32:21.140Z,1.50
2022-11-21T22:34:50.167Z,1.50
2022-11-21T22:37:18.680Z,1.40
2022-11-21T22:39:47.261Z,1.50
2022-11-21T22:42:15.657Z,1.50
2022-11-21T22:44:47.804Z,1.50
2022-11-21T22:47:18.398Z,1.60
2022-11-21T22:49:46.817Z,1.60
2022-11-21T22:52:15.244Z,1.60
2022-11-21T22:54:43.639Z,1.70
2022-11-21T22:57:13.043Z,1.80
2022-11-21T22:59:41.401Z,1.80
2022-11-21T23:02:11.195Z,1.70
2022-11-21T23:04:39.597Z,1.80
2022-11-21T23:07:08.496Z,1.80
2022-11-21T23:09:37.021Z,1.70
2022-11-21T23:12:05.785Z,1.80
2022-11-21T23:14:34.173Z,1.80
2022-11-21T23:17:02.562Z,1.80
2022-11-21T23:19:32.473Z,1.80
2022-11-21T23:22:00.887Z,1.80
2022-11-21T23:24:29.338Z,1.80
2022-11-21T23:26:57.784Z,1.70
2022-11-21T23:29:26.597Z,1.70
2022-11-21T23:31:55.142Z,1.70
2022-11-21T23:34:23.617Z,1.70
2022-11-21T23:36:53.414Z,1.80
2022-11-21T23:39:21.877Z,1.80
2022-11-21T23:42:07.836Z,1.90
2022-11-21T23:44:36.387Z,1.90
2022-11-21T23:47:04.707Z,1.90
2022-11-21T23:49:33.151Z,2.00
2022-11-21T23:52:02.890Z,2.00
2022-11-21T23:54:31.352Z,2.00
2022-11-21T23:56:59.777Z,2.10
2022-11-21T23:59:28.553Z,2.10
